Hlavní strana
METAR-TAF:

METAR-TAF

Letiště :

Batesville, Arkansas, Spojené státy americké

zeměpisná šířka: 35-44N, zeměpisná délka: 091-39W, výška: 141 m

Aktuální stav počasí

Zpráva byla vytvořena před 48 minutami, v 00:56 UTC
vítr z různých směrů 6 kt
Teplota 8°C
Vlhkost vzduchu 71%
Tlak 1016 hPa
Viditelnost: 16.1 km
Oblačno až skoro zataženo ve výšce 2500 ft
Zataženo ve výšce 3200 ft

METAR: KBVX 260056Z AUTO VRB06KT 10SM BKN025 OVC032 08/03 A2999 RMK AO2 SLPNO T00780028 PNO $

Čas: 19:44 (01:44 UTC)


TAF: chybějící

Stav a předpovědi počasí z více než 4 000 letišť (zprávy METAR a TAF).

Červené a žluté tečky na mapě představují dostupné meteorologické stanice.

Když kurzor umístíte na tečku, zobrazí se název stanice.

Pak kliknutím zobrazíte stav a předpověď počasí.

Chcete-li změnit mapu, kliknutím na zelené tlačítko se znaménkem +mapu přiblížíte, kliknutím na zelené tlačítko se znaménkem – mapu oddálíte a kliknutím na zelené šipky přejdete na sousední mapy.


METAR-TAF: